sensor_id;sensor_type;location;lat;lon;timestamp;P1;durP1;ratioP1;P2;durP2;ratioP2
58017;SDS011;43810;50.860;19.226;2022-07-06T00:01:41;32.63;;;20.73;;
58017;SDS011;43810;50.860;19.226;2022-07-06T00:04:07;34.28;;;19.65;;
58017;SDS011;43810;50.860;19.226;2022-07-06T00:06:33;34.88;;;19.45;;
58017;SDS011;43810;50.860;19.226;2022-07-06T00:08:59;29.83;;;18.65;;
58017;SDS011;43810;50.860;19.226;2022-07-06T00:11:25;32.72;;;20.25;;
58017;SDS011;43810;50.860;19.226;2022-07-06T00:13:51;32.08;;;20.65;;
58017;SDS011;43810;50.860;19.226;2022-07-06T00:16:18;33.10;;;20.65;;
58017;SDS011;43810;50.860;19.226;2022-07-06T00:18:44;37.25;;;21.85;;
58017;SDS011;43810;50.860;19.226;2022-07-06T00:21:10;36.55;;;21.52;;
58017;SDS011;43810;50.860;19.226;2022-07-06T00:23:36;38.05;;;22.70;;
58017;SDS011;43810;50.860;19.226;2022-07-06T00:26:02;35.47;;;21.75;;
58017;SDS011;43810;50.860;19.226;2022-07-06T00:28:27;48.47;;;22.35;;
58017;SDS011;43810;50.860;19.226;2022-07-06T00:30:54;38.75;;;23.05;;
58017;SDS011;43810;50.860;19.226;2022-07-06T00:33:20;39.40;;;22.27;;
58017;SDS011;43810;50.860;19.226;2022-07-06T00:35:46;37.95;;;22.02;;
58017;SDS011;43810;50.860;19.226;2022-07-06T00:38:12;38.60;;;22.80;;
58017;SDS011;43810;50.860;19.226;2022-07-06T00:40:38;42.80;;;23.08;;
58017;SDS011;43810;50.860;19.226;2022-07-06T00:43:04;49.67;;;25.77;;
58017;SDS011;43810;50.860;19.226;2022-07-06T00:45:30;40.63;;;24.05;;
58017;SDS011;43810;50.860;19.226;2022-07-06T00:47:56;44.22;;;23.05;;
58017;SDS011;43810;50.860;19.226;2022-07-06T00:50:21;34.72;;;22.00;;
58017;SDS011;43810;50.860;19.226;2022-07-06T00:52:50;36.70;;;21.13;;
58017;SDS011;43810;50.860;19.226;2022-07-06T00:55:24;46.30;;;24.38;;
58017;SDS011;43810;50.860;19.226;2022-07-06T00:57:52;44.58;;;23.30;;
58017;SDS011;43810;50.860;19.226;2022-07-06T01:00:19;45.03;;;24.42;;
58017;SDS011;43810;50.860;19.226;2022-07-06T01:02:47;50.63;;;25.20;;
58017;SDS011;43810;50.860;19.226;2022-07-06T01:05:14;50.90;;;24.58;;
58017;SDS011;43810;50.860;19.226;2022-07-06T01:07:41;45.42;;;24.45;;
58017;SDS011;43810;50.860;19.226;2022-07-06T01:10:09;47.88;;;25.08;;
58017;SDS011;43810;50.860;19.226;2022-07-06T01:12:36;45.33;;;24.77;;
58017;SDS011;43810;50.860;19.226;2022-07-06T01:15:04;45.65;;;25.85;;
58017;SDS011;43810;50.860;19.226;2022-07-06T01:17:32;47.20;;;25.80;;
58017;SDS011;43810;50.860;19.226;2022-07-06T01:20:07;52.30;;;26.08;;
58017;SDS011;43810;50.860;19.226;2022-07-06T01:22:40;52.20;;;27.23;;
58017;SDS011;43810;50.860;19.226;2022-07-06T01:25:06;49.28;;;26.92;;
58017;SDS011;43810;50.860;19.226;2022-07-06T01:27:36;62.70;;;27.77;;
58017;SDS011;43810;50.860;19.226;2022-07-06T01:30:07;51.15;;;26.15;;
58017;SDS011;43810;50.860;19.226;2022-07-06T01:32:35;41.33;;;23.80;;
58017;SDS011;43810;50.860;19.226;2022-07-06T01:35:02;48.58;;;24.13;;
58017;SDS011;43810;50.860;19.226;2022-07-06T01:37:30;47.60;;;23.30;;
58017;SDS011;43810;50.860;19.226;2022-07-06T01:39:59;40.78;;;22.60;;
58017;SDS011;43810;50.860;19.226;2022-07-06T01:42:26;39.85;;;22.75;;
58017;SDS011;43810;50.860;19.226;2022-07-06T01:44:52;37.65;;;21.13;;
58017;SDS011;43810;50.860;19.226;2022-07-06T01:47:18;35.70;;;20.92;;
58017;SDS011;43810;50.860;19.226;2022-07-06T01:49:44;26.88;;;18.38;;
58017;SDS011;43810;50.860;19.226;2022-07-06T01:52:09;33.63;;;17.42;;
58017;SDS011;43810;50.860;19.226;2022-07-06T01:54:35;32.30;;;19.60;;
58017;SDS011;43810;50.860;19.226;2022-07-06T01:57:01;34.25;;;17.77;;
58017;SDS011;43810;50.860;19.226;2022-07-06T01:59:27;25.40;;;17.63;;
58017;SDS011;43810;50.860;19.226;2022-07-06T02:01:53;26.85;;;15.80;;
58017;SDS011;43810;50.860;19.226;2022-07-06T02:04:18;30.98;;;15.45;;
58017;SDS011;43810;50.860;19.226;2022-07-06T02:06:44;25.90;;;13.90;;
58017;SDS011;43810;50.860;19.226;2022-07-06T02:09:10;22.02;;;13.77;;
58017;SDS011;43810;50.860;19.226;2022-07-06T02:11:35;21.77;;;13.65;;
58017;SDS011;43810;50.860;19.226;2022-07-06T02:14:01;20.85;;;13.23;;
58017;SDS011;43810;50.860;19.226;2022-07-06T02:16:27;22.83;;;14.88;;
58017;SDS011;43810;50.860;19.226;2022-07-06T02:18:53;24.25;;;14.25;;
58017;SDS011;43810;50.860;19.226;2022-07-06T02:21:18;20.35;;;12.95;;
58017;SDS011;43810;50.860;19.226;2022-07-06T02:23:44;25.45;;;13.60;;
58017;SDS011;43810;50.860;19.226;2022-07-06T02:26:10;25.70;;;14.85;;
58017;SDS011;43810;50.860;19.226;2022-07-06T02:28:35;24.42;;;13.48;;
58017;SDS011;43810;50.860;19.226;2022-07-06T02:31:01;20.23;;;14.65;;
58017;SDS011;43810;50.860;19.226;2022-07-06T02:33:27;20.33;;;12.98;;
58017;SDS011;43810;50.860;19.226;2022-07-06T02:35:53;19.55;;;13.35;;
58017;SDS011;43810;50.860;19.226;2022-07-06T02:38:18;20.23;;;13.25;;
58017;SDS011;43810;50.860;19.226;2022-07-06T02:40:44;24.63;;;14.02;;
58017;SDS011;43810;50.860;19.226;2022-07-06T02:43:10;23.02;;;12.48;;
58017;SDS011;43810;50.860;19.226;2022-07-06T02:45:36;16.67;;;10.73;;
58017;SDS011;43810;50.860;19.226;2022-07-06T02:48:02;24.30;;;14.23;;
58017;SDS011;43810;50.860;19.226;2022-07-06T02:50:27;18.73;;;13.02;;
58017;SDS011;43810;50.860;19.226;2022-07-06T02:52:53;23.83;;;14.35;;
58017;SDS011;43810;50.860;19.226;2022-07-06T02:55:20;19.05;;;13.10;;
58017;SDS011;43810;50.860;19.226;2022-07-06T02:57:46;21.85;;;13.52;;
58017;SDS011;43810;50.860;19.226;2022-07-06T03:00:12;21.88;;;14.60;;
58017;SDS011;43810;50.860;19.226;2022-07-06T03:02:38;27.88;;;16.00;;
58017;SDS011;43810;50.860;19.226;2022-07-06T03:05:04;25.48;;;14.90;;
58017;SDS011;43810;50.860;19.226;2022-07-06T03:07:31;25.95;;;14.90;;
58017;SDS011;43810;50.860;19.226;2022-07-06T03:09:56;33.60;;;16.70;;
58017;SDS011;43810;50.860;19.226;2022-07-06T03:12:22;27.00;;;16.20;;
58017;SDS011;43810;50.860;19.226;2022-07-06T03:14:48;27.58;;;17.15;;
58017;SDS011;43810;50.860;19.226;2022-07-06T03:17:13;31.23;;;18.33;;
58017;SDS011;43810;50.860;19.226;2022-07-06T03:19:39;36.22;;;16.40;;
58017;SDS011;43810;50.860;19.226;2022-07-06T03:22:05;29.00;;;16.60;;
58017;SDS011;43810;50.860;19.226;2022-07-06T03:24:31;33.33;;;16.33;;
58017;SDS011;43810;50.860;19.226;2022-07-06T03:26:56;33.63;;;17.35;;
58017;SDS011;43810;50.860;19.226;2022-07-06T03:29:22;39.40;;;18.65;;
58017;SDS011;43810;50.860;19.226;2022-07-06T03:31:48;37.20;;;18.05;;
58017;SDS011;43810;50.860;19.226;2022-07-06T03:34:14;30.95;;;17.48;;
58017;SDS011;43810;50.860;19.226;2022-07-06T03:36:40;31.85;;;16.73;;
58017;SDS011;43810;50.860;19.226;2022-07-06T03:39:05;35.33;;;18.30;;
58017;SDS011;43810;50.860;19.226;2022-07-06T03:41:31;24.33;;;16.08;;
58017;SDS011;43810;50.860;19.226;2022-07-06T03:43:58;26.80;;;17.30;;
58017;SDS011;43810;50.860;19.226;2022-07-06T03:46:24;23.48;;;15.73;;
58017;SDS011;43810;50.860;19.226;2022-07-06T03:48:50;31.15;;;16.50;;
58017;SDS011;43810;50.860;19.226;2022-07-06T03:51:15;25.15;;;16.13;;
58017;SDS011;43810;50.860;19.226;2022-07-06T03:53:41;26.67;;;15.23;;
58017;SDS011;43810;50.860;19.226;2022-07-06T03:56:07;28.27;;;18.48;;
58017;SDS011;43810;50.860;19.226;2022-07-06T03:58:51;24.27;;;15.95;;
58017;SDS011;43810;50.860;19.226;2022-07-06T04:01:17;19.48;;;14.10;;
58017;SDS011;43810;50.860;19.226;2022-07-06T04:03:43;16.85;;;13.38;;
58017;SDS011;43810;50.860;19.226;2022-07-06T04:06:10;19.17;;;14.75;;
58017;SDS011;43810;50.860;19.226;2022-07-06T04:08:36;18.38;;;12.95;;
58017;SDS011;43810;50.860;19.226;2022-07-06T04:11:02;16.58;;;12.85;;
58017;SDS011;43810;50.860;19.226;2022-07-06T04:13:28;16.95;;;13.05;;
58017;SDS011;43810;50.860;19.226;2022-07-06T04:15:56;14.30;;;10.70;;
58017;SDS011;43810;50.860;19.226;2022-07-06T04:18:21;13.00;;;9.65;;
58017;SDS011;43810;50.860;19.226;2022-07-06T04:20:47;14.32;;;10.85;;
58017;SDS011;43810;50.860;19.226;2022-07-06T04:23:13;17.05;;;9.88;;
58017;SDS011;43810;50.860;19.226;2022-07-06T04:25:38;11.30;;;9.38;;
58017;SDS011;43810;50.860;19.226;2022-07-06T04:28:04;10.75;;;9.32;;
58017;SDS011;43810;50.860;19.226;2022-07-06T04:30:30;10.93;;;8.70;;
58017;SDS011;43810;50.860;19.226;2022-07-06T04:32:55;11.45;;;9.02;;
58017;SDS011;43810;50.860;19.226;2022-07-06T04:35:22;16.67;;;8.88;;
58017;SDS011;43810;50.860;19.226;2022-07-06T04:37:47;14.73;;;9.80;;
58017;SDS011;43810;50.860;19.226;2022-07-06T04:40:13;11.38;;;9.45;;
58017;SDS011;43810;50.860;19.226;2022-07-06T04:42:40;12.00;;;9.73;;
58017;SDS011;43810;50.860;19.226;2022-07-06T04:45:06;15.27;;;9.75;;
58017;SDS011;43810;50.860;19.226;2022-07-06T04:47:32;11.52;;;9.40;;
58017;SDS011;43810;50.860;19.226;2022-07-06T04:49:58;13.23;;;8.60;;
58017;SDS011;43810;50.860;19.226;2022-07-06T04:52:24;12.32;;;10.10;;
58017;SDS011;43810;50.860;19.226;2022-07-06T04:54:49;14.05;;;10.35;;
58017;SDS011;43810;50.860;19.226;2022-07-06T04:57:15;12.73;;;10.20;;
58017;SDS011;43810;50.860;19.226;2022-07-06T04:59:41;9.77;;;8.50;;
58017;SDS011;43810;50.860;19.226;2022-07-06T05:02:07;12.13;;;9.23;;
58017;SDS011;43810;50.860;19.226;2022-07-06T05:04:33;11.20;;;9.55;;
58017;SDS011;43810;50.860;19.226;2022-07-06T05:06:58;11.27;;;9.65;;
58017;SDS011;43810;50.860;19.226;2022-07-06T05:09:24;10.65;;;8.50;;
58017;SDS011;43810;50.860;19.226;2022-07-06T05:11:50;10.68;;;8.80;;
58017;SDS011;43810;50.860;19.226;2022-07-06T05:14:16;9.60;;;8.60;;
58017;SDS011;43810;50.860;19.226;2022-07-06T05:16:42;12.43;;;8.80;;
58017;SDS011;43810;50.860;19.226;2022-07-06T05:19:08;8.50;;;7.63;;
58017;SDS011;43810;50.860;19.226;2022-07-06T05:21:33;9.98;;;7.50;;
58017;SDS011;43810;50.860;19.226;2022-07-06T05:23:59;7.32;;;6.60;;
58017;SDS011;43810;50.860;19.226;2022-07-06T05:26:25;9.48;;;6.70;;
58017;SDS011;43810;50.860;19.226;2022-07-06T05:28:50;6.85;;;6.18;;
58017;SDS011;43810;50.860;19.226;2022-07-06T05:31:16;7.00;;;5.85;;
58017;SDS011;43810;50.860;19.226;2022-07-06T05:33:42;6.28;;;5.50;;
58017;SDS011;43810;50.860;19.226;2022-07-06T05:36:08;12.25;;;7.78;;
58017;SDS011;43810;50.860;19.226;2022-07-06T05:38:33;10.27;;;7.50;;
58017;SDS011;43810;50.860;19.226;2022-07-06T05:40:59;9.95;;;8.25;;
58017;SDS011;43810;50.860;19.226;2022-07-06T05:43:25;10.10;;;8.65;;
58017;SDS011;43810;50.860;19.226;2022-07-06T05:45:51;8.13;;;7.20;;
58017;SDS011;43810;50.860;19.226;2022-07-06T05:48:16;6.35;;;5.32;;
58017;SDS011;43810;50.860;19.226;2022-07-06T05:51:01;6.78;;;5.75;;
58017;SDS011;43810;50.860;19.226;2022-07-06T05:53:27;7.93;;;6.07;;
58017;SDS011;43810;50.860;19.226;2022-07-06T05:55:52;9.55;;;5.80;;
58017;SDS011;43810;50.860;19.226;2022-07-06T05:58:18;8.85;;;5.78;;
58017;SDS011;43810;50.860;19.226;2022-07-06T06:00:44;10.02;;;5.50;;
58017;SDS011;43810;50.860;19.226;2022-07-06T06:03:10;9.75;;;5.78;;
58017;SDS011;43810;50.860;19.226;2022-07-06T06:05:36;5.35;;;4.85;;
58017;SDS011;43810;50.860;19.226;2022-07-06T06:08:02;5.53;;;4.78;;
58017;SDS011;43810;50.860;19.226;2022-07-06T06:10:28;6.95;;;3.90;;
58017;SDS011;43810;50.860;19.226;2022-07-06T06:12:54;4.90;;;4.35;;
58017;SDS011;43810;50.860;19.226;2022-07-06T06:15:20;5.63;;;4.53;;
58017;SDS011;43810;50.860;19.226;2022-07-06T06:17:45;4.10;;;3.60;;
58017;SDS011;43810;50.860;19.226;2022-07-06T06:20:12;3.95;;;3.55;;
58017;SDS011;43810;50.860;19.226;2022-07-06T06:25:15;11.15;;;4.28;;
58017;SDS011;43810;50.860;19.226;2022-07-06T06:27:42;12.00;;;4.78;;
58017;SDS011;43810;50.860;19.226;2022-07-06T06:30:08;9.63;;;5.93;;
58017;SDS011;43810;50.860;19.226;2022-07-06T06:32:34;5.82;;;4.03;;
58017;SDS011;43810;50.860;19.226;2022-07-06T06:35:00;6.28;;;4.60;;
58017;SDS011;43810;50.860;19.226;2022-07-06T06:37:26;5.65;;;4.35;;
58017;SDS011;43810;50.860;19.226;2022-07-06T06:39:52;5.32;;;4.00;;
58017;SDS011;43810;50.860;19.226;2022-07-06T06:42:17;5.68;;;4.68;;
58017;SDS011;43810;50.860;19.226;2022-07-06T06:44:44;7.25;;;5.07;;
58017;SDS011;43810;50.860;19.226;2022-07-06T06:47:10;6.38;;;5.43;;
58017;SDS011;43810;50.860;19.226;2022-07-06T06:49:36;10.82;;;6.13;;
58017;SDS011;43810;50.860;19.226;2022-07-06T06:52:01;8.73;;;5.30;;
58017;SDS011;43810;50.860;19.226;2022-07-06T06:54:27;9.63;;;6.03;;
58017;SDS011;43810;50.860;19.226;2022-07-06T06:56:53;8.70;;;5.47;;
58017;SDS011;43810;50.860;19.226;2022-07-06T06:59:19;7.15;;;5.55;;
58017;SDS011;43810;50.860;19.226;2022-07-06T07:01:44;7.63;;;5.13;;
58017;SDS011;43810;50.860;19.226;2022-07-06T07:04:10;6.80;;;4.60;;
58017;SDS011;43810;50.860;19.226;2022-07-06T07:06:37;8.95;;;4.78;;
58017;SDS011;43810;50.860;19.226;2022-07-06T07:09:02;7.43;;;4.28;;
58017;SDS011;43810;50.860;19.226;2022-07-06T07:11:29;6.10;;;5.22;;
58017;SDS011;43810;50.860;19.226;2022-07-06T07:13:54;6.70;;;4.22;;
58017;SDS011;43810;50.860;19.226;2022-07-06T07:16:20;8.68;;;5.65;;
58017;SDS011;43810;50.860;19.226;2022-07-06T07:18:46;6.05;;;5.07;;
58017;SDS011;43810;50.860;19.226;2022-07-06T07:21:11;6.75;;;4.90;;
58017;SDS011;43810;50.860;19.226;2022-07-06T07:23:37;7.97;;;5.22;;
58017;SDS011;43810;50.860;19.226;2022-07-06T07:26:03;8.98;;;5.93;;
58017;SDS011;43810;50.860;19.226;2022-07-06T07:28:28;14.00;;;7.00;;
58017;SDS011;43810;50.860;19.226;2022-07-06T07:30:54;8.32;;;6.50;;
58017;SDS011;43810;50.860;19.226;2022-07-06T07:33:20;14.48;;;7.88;;
58017;SDS011;43810;50.860;19.226;2022-07-06T07:35:46;11.85;;;7.88;;
58017;SDS011;43810;50.860;19.226;2022-07-06T07:38:12;12.98;;;8.10;;
58017;SDS011;43810;50.860;19.226;2022-07-06T07:40:38;12.07;;;8.77;;
58017;SDS011;43810;50.860;19.226;2022-07-06T07:43:03;12.95;;;8.48;;
58017;SDS011;43810;50.860;19.226;2022-07-06T07:45:29;12.57;;;8.57;;
58017;SDS011;43810;50.860;19.226;2022-07-06T07:47:55;11.30;;;8.77;;
58017;SDS011;43810;50.860;19.226;2022-07-06T07:50:21;10.25;;;8.50;;
58017;SDS011;43810;50.860;19.226;2022-07-06T07:52:47;10.82;;;8.77;;
58017;SDS011;43810;50.860;19.226;2022-07-06T07:55:12;16.38;;;9.93;;
58017;SDS011;43810;50.860;19.226;2022-07-06T07:57:38;10.65;;;9.60;;
58017;SDS011;43810;50.860;19.226;2022-07-06T08:00:04;11.65;;;10.55;;
58017;SDS011;43810;50.860;19.226;2022-07-06T08:02:30;14.18;;;11.73;;
58017;SDS011;43810;50.860;19.226;2022-07-06T08:04:56;14.85;;;12.68;;
58017;SDS011;43810;50.860;19.226;2022-07-06T08:07:22;15.32;;;13.60;;
58017;SDS011;43810;50.860;19.226;2022-07-06T08:09:48;23.77;;;17.63;;
58017;SDS011;43810;50.860;19.226;2022-07-06T08:12:13;24.17;;;18.20;;
58017;SDS011;43810;50.860;19.226;2022-07-06T08:14:39;25.75;;;20.05;;
58017;SDS011;43810;50.860;19.226;2022-07-06T08:17:05;28.38;;;20.98;;
58017;SDS011;43810;50.860;19.226;2022-07-06T08:19:30;25.83;;;20.35;;
58017;SDS011;43810;50.860;19.226;2022-07-06T08:21:56;26.92;;;20.02;;
58017;SDS011;43810;50.860;19.226;2022-07-06T08:24:22;25.00;;;18.90;;
58017;SDS011;43810;50.860;19.226;2022-07-06T08:26:48;22.33;;;17.27;;
58017;SDS011;43810;50.860;19.226;2022-07-06T08:29:14;21.00;;;15.57;;
58017;SDS011;43810;50.860;19.226;2022-07-06T08:31:40;22.02;;;15.02;;
58017;SDS011;43810;50.860;19.226;2022-07-06T08:34:05;18.40;;;13.60;;
58017;SDS011;43810;50.860;19.226;2022-07-06T08:36:31;15.40;;;13.63;;
58017;SDS011;43810;50.860;19.226;2022-07-06T08:38:58;19.73;;;15.18;;
58017;SDS011;43810;50.860;19.226;2022-07-06T08:41:25;17.73;;;14.70;;
58017;SDS011;43810;50.860;19.226;2022-07-06T08:43:53;20.65;;;14.05;;
58017;SDS011;43810;50.860;19.226;2022-07-06T08:46:19;15.82;;;13.52;;
58017;SDS011;43810;50.860;19.226;2022-07-06T08:48:46;14.38;;;12.77;;
58017;SDS011;43810;50.860;19.226;2022-07-06T08:51:13;14.27;;;12.00;;
58017;SDS011;43810;50.860;19.226;2022-07-06T08:53:42;12.50;;;10.85;;
58017;SDS011;43810;50.860;19.226;2022-07-06T08:56:09;11.70;;;10.57;;
58017;SDS011;43810;50.860;19.226;2022-07-06T08:58:35;13.20;;;10.50;;
58017;SDS011;43810;50.860;19.226;2022-07-06T09:01:02;18.58;;;10.45;;
58017;SDS011;43810;50.860;19.226;2022-07-06T09:03:28;12.30;;;10.95;;
58017;SDS011;43810;50.860;19.226;2022-07-06T09:05:56;14.00;;;10.80;;
58017;SDS011;43810;50.860;19.226;2022-07-06T09:08:26;11.93;;;10.32;;
58017;SDS011;43810;50.860;19.226;2022-07-06T09:10:52;15.13;;;10.65;;
58017;SDS011;43810;50.860;19.226;2022-07-06T09:13:19;14.60;;;10.45;;
58017;SDS011;43810;50.860;19.226;2022-07-06T09:15:45;15.65;;;11.80;;
58017;SDS011;43810;50.860;19.226;2022-07-06T09:18:10;12.70;;;11.07;;
58017;SDS011;43810;50.860;19.226;2022-07-06T09:20:36;13.85;;;11.60;;
58017;SDS011;43810;50.860;19.226;2022-07-06T09:23:05;14.07;;;12.02;;
58017;SDS011;43810;50.860;19.226;2022-07-06T09:25:32;16.30;;;11.95;;
58017;SDS011;43810;50.860;19.226;2022-07-06T09:27:59;18.98;;;12.02;;
58017;SDS011;43810;50.860;19.226;2022-07-06T09:30:26;13.85;;;11.65;;
58017;SDS011;43810;50.860;19.226;2022-07-06T09:32:53;13.25;;;11.27;;
58017;SDS011;43810;50.860;19.226;2022-07-06T09:38:09;14.45;;;10.55;;
58017;SDS011;43810;50.860;19.226;2022-07-06T09:40:43;13.00;;;10.40;;
58017;SDS011;43810;50.860;19.226;2022-07-06T09:43:14;14.85;;;11.32;;
58017;SDS011;43810;50.860;19.226;2022-07-06T09:45:45;12.40;;;10.23;;
58017;SDS011;43810;50.860;19.226;2022-07-06T09:48:18;16.60;;;11.05;;
58017;SDS011;43810;50.860;19.226;2022-07-06T09:50:52;14.35;;;11.55;;
58017;SDS011;43810;50.860;19.226;2022-07-06T09:53:20;12.65;;;11.27;;
58017;SDS011;43810;50.860;19.226;2022-07-06T09:55:48;18.33;;;10.73;;
58017;SDS011;43810;50.860;19.226;2022-07-06T09:58:16;17.05;;;11.50;;
58017;SDS011;43810;50.860;19.226;2022-07-06T10:00:43;17.13;;;11.10;;
58017;SDS011;43810;50.860;19.226;2022-07-06T10:03:10;15.85;;;10.77;;
58017;SDS011;43810;50.860;19.226;2022-07-06T10:05:36;15.80;;;11.38;;
58017;SDS011;43810;50.860;19.226;2022-07-06T10:08:03;14.30;;;11.05;;
58017;SDS011;43810;50.860;19.226;2022-07-06T10:10:31;13.93;;;10.77;;
58017;SDS011;43810;50.860;19.226;2022-07-06T10:12:58;12.70;;;9.10;;
58017;SDS011;43810;50.860;19.226;2022-07-06T10:15:25;11.35;;;10.15;;
58017;SDS011;43810;50.860;19.226;2022-07-06T10:17:52;14.48;;;10.13;;
58017;SDS011;43810;50.860;19.226;2022-07-06T10:20:20;11.60;;;10.02;;
58017;SDS011;43810;50.860;19.226;2022-07-06T10:22:47;12.80;;;10.60;;
58017;SDS011;43810;50.860;19.226;2022-07-06T10:25:16;12.02;;;10.13;;
58017;SDS011;43810;50.860;19.226;2022-07-06T10:27:44;12.18;;;10.48;;
58017;SDS011;43810;50.860;19.226;2022-07-06T10:30:11;10.85;;;9.75;;
58017;SDS011;43810;50.860;19.226;2022-07-06T10:32:37;13.95;;;10.55;;
58017;SDS011;43810;50.860;19.226;2022-07-06T10:35:05;15.57;;;9.90;;
58017;SDS011;43810;50.860;19.226;2022-07-06T10:37:31;10.38;;;8.82;;
58017;SDS011;43810;50.860;19.226;2022-07-06T10:39:59;10.70;;;9.43;;
58017;SDS011;43810;50.860;19.226;2022-07-06T10:42:44;10.40;;;9.13;;
58017;SDS011;43810;50.860;19.226;2022-07-06T10:45:15;7.43;;;6.72;;
58017;SDS011;43810;50.860;19.226;2022-07-06T10:48:02;11.27;;;8.23;;
58017;SDS011;43810;50.860;19.226;2022-07-06T10:50:40;9.80;;;7.70;;
58017;SDS011;43810;50.860;19.226;2022-07-06T10:53:29;10.95;;;8.90;;
58017;SDS011;43810;50.860;19.226;2022-07-06T10:55:58;8.15;;;7.07;;
58017;SDS011;43810;50.860;19.226;2022-07-06T10:58:35;8.70;;;7.00;;
58017;SDS011;43810;50.860;19.226;2022-07-06T11:01:12;9.80;;;6.40;;
58017;SDS011;43810;50.860;19.226;2022-07-06T11:03:39;10.13;;;5.18;;
58017;SDS011;43810;50.860;19.226;2022-07-06T11:06:19;9.07;;;6.00;;
58017;SDS011;43810;50.860;19.226;2022-07-06T11:09:02;9.00;;;6.45;;
58017;SDS011;43810;50.860;19.226;2022-07-06T11:13:59;12.18;;;6.75;;
58017;SDS011;43810;50.860;19.226;2022-07-06T11:16:27;7.82;;;6.47;;
58017;SDS011;43810;50.860;19.226;2022-07-06T11:24:12;6.88;;;4.22;;
58017;SDS011;43810;50.860;19.226;2022-07-06T11:26:40;4.95;;;4.53;;
58017;SDS011;43810;50.860;19.226;2022-07-06T11:29:08;6.18;;;4.15;;
58017;SDS011;43810;50.860;19.226;2022-07-06T11:31:35;7.20;;;4.25;;
58017;SDS011;43810;50.860;19.226;2022-07-06T11:34:03;10.77;;;6.47;;
58017;SDS011;43810;50.860;19.226;2022-07-06T11:36:30;10.63;;;7.18;;
58017;SDS011;43810;50.860;19.226;2022-07-06T11:38:56;14.43;;;7.13;;
58017;SDS011;43810;50.860;19.226;2022-07-06T11:41:22;6.05;;;3.85;;
58017;SDS011;43810;50.860;19.226;2022-07-06T11:43:47;7.63;;;4.28;;
58017;SDS011;43810;50.860;19.226;2022-07-06T11:48:53;10.80;;;2.80;;
58017;SDS011;43810;50.860;19.226;2022-07-06T11:51:21;2.97;;;2.20;;
58017;SDS011;43810;50.860;19.226;2022-07-06T11:53:49;11.27;;;2.63;;
58017;SDS011;43810;50.860;19.226;2022-07-06T11:56:16;2.65;;;2.35;;
58017;SDS011;43810;50.860;19.226;2022-07-06T11:58:48;4.05;;;1.92;;
58017;SDS011;43810;50.860;19.226;2022-07-06T12:01:15;3.05;;;1.90;;
58017;SDS011;43810;50.860;19.226;2022-07-06T12:03:41;3.55;;;2.00;;
58017;SDS011;43810;50.860;19.226;2022-07-06T12:06:15;1.73;;;1.45;;
58017;SDS011;43810;50.860;19.226;2022-07-06T12:08:51;2.40;;;1.70;;
58017;SDS011;43810;50.860;19.226;2022-07-06T12:13:47;1.70;;;1.60;;
58017;SDS011;43810;50.860;19.226;2022-07-06T12:16:14;2.17;;;1.33;;
58017;SDS011;43810;50.860;19.226;2022-07-06T12:18:42;1.58;;;1.38;;
58017;SDS011;43810;50.860;19.226;2022-07-06T12:21:14;5.60;;;1.30;;
58017;SDS011;43810;50.860;19.226;2022-07-06T12:23:44;2.38;;;1.58;;
58017;SDS011;43810;50.860;19.226;2022-07-06T12:26:11;2.10;;;1.90;;
58017;SDS011;43810;50.860;19.226;2022-07-06T12:28:39;1.60;;;1.50;;
58017;SDS011;43810;50.860;19.226;2022-07-06T12:31:06;2.03;;;1.67;;
58017;SDS011;43810;50.860;19.226;2022-07-06T12:33:31;1.30;;;1.20;;
58017;SDS011;43810;50.860;19.226;2022-07-06T12:35:57;4.68;;;1.75;;
58017;SDS011;43810;50.860;19.226;2022-07-06T12:38:34;3.15;;;1.40;;
58017;SDS011;43810;50.860;19.226;2022-07-06T12:41:00;1.40;;;1.30;;
58017;SDS011;43810;50.860;19.226;2022-07-06T12:43:37;2.13;;;1.20;;
58017;SDS011;43810;50.860;19.226;2022-07-06T12:48:53;4.10;;;1.25;;
58017;SDS011;43810;50.860;19.226;2022-07-06T12:51:19;2.75;;;1.27;;
58017;SDS011;43810;50.860;19.226;2022-07-06T12:53:45;2.97;;;1.15;;
58017;SDS011;43810;50.860;19.226;2022-07-06T12:56:11;1.30;;;1.20;;
58017;SDS011;43810;50.860;19.226;2022-07-06T12:58:38;2.30;;;0.90;;
58017;SDS011;43810;50.860;19.226;2022-07-06T13:01:04;2.40;;;0.98;;
58017;SDS011;43810;50.860;19.226;2022-07-06T13:03:39;2.20;;;0.90;;
58017;SDS011;43810;50.860;19.226;2022-07-06T13:06:06;2.15;;;1.20;;
58017;SDS011;43810;50.860;19.226;2022-07-06T13:08:31;2.22;;;1.08;;
58017;SDS011;43810;50.860;19.226;2022-07-06T13:10:57;1.38;;;1.10;;
58017;SDS011;43810;50.860;19.226;2022-07-06T13:13:23;1.52;;;1.00;;
58017;SDS011;43810;50.860;19.226;2022-07-06T13:15:48;1.20;;;0.77;;
58017;SDS011;43810;50.860;19.226;2022-07-06T13:18:15;1.15;;;1.08;;
58017;SDS011;43810;50.860;19.226;2022-07-06T13:20:44;1.27;;;0.82;;
58017;SDS011;43810;50.860;19.226;2022-07-06T13:23:09;2.25;;;1.10;;
58017;SDS011;43810;50.860;19.226;2022-07-06T13:25:35;1.80;;;1.20;;
58017;SDS011;43810;50.860;19.226;2022-07-06T13:28:01;2.90;;;1.10;;
58017;SDS011;43810;50.860;19.226;2022-07-06T13:30:27;2.30;;;1.15;;
58017;SDS011;43810;50.860;19.226;2022-07-06T13:32:53;4.50;;;1.33;;
58017;SDS011;43810;50.860;19.226;2022-07-06T13:35:18;2.08;;;1.20;;
58017;SDS011;43810;50.860;19.226;2022-07-06T13:37:44;1.70;;;1.60;;
58017;SDS011;43810;50.860;19.226;2022-07-06T13:40:12;2.13;;;1.45;;
58017;SDS011;43810;50.860;19.226;2022-07-06T13:42:38;2.25;;;1.45;;
58017;SDS011;43810;50.860;19.226;2022-07-06T13:45:03;2.35;;;1.42;;
58017;SDS011;43810;50.860;19.226;2022-07-06T13:47:29;2.28;;;1.75;;
58017;SDS011;43810;50.860;19.226;2022-07-06T13:49:55;2.90;;;2.00;;
58017;SDS011;43810;50.860;19.226;2022-07-06T13:52:21;3.40;;;1.80;;
58017;SDS011;43810;50.860;19.226;2022-07-06T13:54:47;4.43;;;2.17;;
58017;SDS011;43810;50.860;19.226;2022-07-06T13:57:13;8.32;;;2.55;;
58017;SDS011;43810;50.860;19.226;2022-07-06T13:59:38;6.88;;;2.70;;
58017;SDS011;43810;50.860;19.226;2022-07-06T14:02:06;8.88;;;2.40;;
58017;SDS011;43810;50.860;19.226;2022-07-06T14:04:32;3.03;;;1.98;;
58017;SDS011;43810;50.860;19.226;2022-07-06T14:06:57;2.75;;;2.05;;
58017;SDS011;43810;50.860;19.226;2022-07-06T14:09:23;1.80;;;1.55;;
58017;SDS011;43810;50.860;19.226;2022-07-06T14:11:49;2.42;;;1.83;;
58017;SDS011;43810;50.860;19.226;2022-07-06T14:14:14;1.55;;;1.45;;
58017;SDS011;43810;50.860;19.226;2022-07-06T14:16:40;5.00;;;1.67;;
58017;SDS011;43810;50.860;19.226;2022-07-06T14:19:06;3.95;;;1.38;;
58017;SDS011;43810;50.860;19.226;2022-07-06T14:21:31;1.50;;;1.20;;
58017;SDS011;43810;50.860;19.226;2022-07-06T14:23:57;2.35;;;1.42;;
58017;SDS011;43810;50.860;19.226;2022-07-06T14:26:23;3.92;;;1.30;;
58017;SDS011;43810;50.860;19.226;2022-07-06T14:28:48;1.70;;;1.20;;
58017;SDS011;43810;50.860;19.226;2022-07-06T14:31:14;1.88;;;1.20;;
58017;SDS011;43810;50.860;19.226;2022-07-06T14:33:40;2.38;;;1.42;;
58017;SDS011;43810;50.860;19.226;2022-07-06T14:36:06;1.20;;;1.10;;
58017;SDS011;43810;50.860;19.226;2022-07-06T14:38:32;0.93;;;0.93;;
58017;SDS011;43810;50.860;19.226;2022-07-06T14:40:59;3.42;;;1.20;;